PAJNPAKT

Guest
Details From PAJN - Juneau Intl
To PAKT - KETCHIKAN INTL
Flight Number -
Tags generated
Created
Modified
Stats Distance 205 nm / 379 km
Max Altitude 21,200 ft / 6,462 m
Waypoints 3
Social Downloads 0
Likes 0
Share VATSIM

Download

Looking for another format? Having issues loading an existing format? Contact us
Advertisement - Login to hide

Notes

Basic altitude profile: - Ascent Rate: 800ft/min - Ascent Speed: 120kts - Cruise Altitude: 4000ft - Cruise Speed: 150kts - Descent Rate: 500ft/min - Descent Speed: 160kts Options: - Use NATs: yes - Use PACOTS: yes - Use low airways: yes - Use high airways: yes

Route

PAJN TURKS PAKT

ID Type Via Altitude Latitude Longitude Leg Dist Tot Dist Heading (true) Name
O PAJN APT - 0 ft / 0 m 58.35496˚ -134.57628˚ - 0 nm - Juneau Intl
TURKS FIX - 21,200 ft / 6,462 m 56.71661˚ -133.38462˚ 105 nm 105 nm 158° / 159° -
O PAKT APT - 0 ft / 0 m 55.35554˚ -131.71374˚ 99 nm 204 nm 145° / 146° KETCHIKAN INTL

Altitude Profile

Advertisement - Login to hide

Weather


0- 5 10 15 20 25 30 35+ Temperature / ° C

Clouds and Precipitation
Forecast for 2017-12-13 00:00 UTC. Updated an hour ago

Ground ~20,000 ft ~40,000 ft Winds

PAJN

Details ICAO PAJN (JNU)
Name Juneau Intl
Region USA (Alaska)
Timezone America/Juneau (UTC-9.0)
Stats Elevation 21 ft / 6 m (AMSL)
Location 58.354964° -134.576278°
Runways 1
Magnetic Variation 19.150° E

METAR

PAJN 121953Z 06007KT 10SM FEW004 FEW042 OVC090 07/07 A3020

Decode

TAF

PAJN 121725Z 1218/1318 10007KT P6SM -RA BKN025 OVC035 FM122000 10007KT P6SM VCSH BKN040 OVC060 FM130600 11004KT 6SM -RA BR OVC040

Decode

Departure Runways

ID Width Length Bearing (true) Bearing (mag) Surface Threshold Offset Overrun Length
08 150 ft / 46 m 8,430 ft / 2,570 m 104.87° 85.72° Asphalt 0 ft / 0 m 450 ft / 137 m
26 150 ft / 46 m 8,430 ft / 2,570 m 284.90° 265.75° Asphalt 0 ft / 0 m 225 ft / 69 m

PAKT

Details ICAO PAKT (KTN)
Name KETCHIKAN INTL
Region USA (Alaska)
Timezone Unknown (UTC+0.0)
Stats Elevation 88 ft / 27 m (AMSL)
Location 55.355545° -131.713737°
Runways 1
Magnetic Variation 18.535° E

METAR

PAKT 121953Z 13012KT 10SM FEW008 OVC013 08/08 A3031

Decode

TAF

PAKT 121725Z 1218/1318 15010KT 5SM -RA BR BKN015 OVC025 FM131200 15012KT 5SM BR SCT015 BKN050 AMD LTD TO CLD VIS AND WIND 1306/1315

Decode

Destination Runways

ID Width Length Bearing (true) Bearing (mag) Surface Threshold Offset Overrun Length
11 150 ft / 46 m 7,485 ft / 2,281 m 135.66° 117.13° Asphalt 0 ft / 0 m 200 ft / 61 m
29 150 ft / 46 m 7,485 ft / 2,281 m 315.68° 297.15° Asphalt 0 ft / 0 m 100 ft / 30 m

Approach Navaids

Runway Type Ident Frequency Range Bearing (true) Bearing (mag) Slope Elevation
11 Localiser IECH 109.30 MHz 18 nm / 33 km 135.69° 117.15° - 66 ft / 20 m (AMSL)
11 Glidescope IECH 109.30 MHz 10 nm / 19 km 135.67° 117.14° 3.61° 76 ft / 23 m (AMSL)
11 DME IECH 109.30 MHz 18 nm / 33 km - - - 98 ft / 30 m (AMSL)

Popular Alternatives